Arklow Raider — EIXS — position and weather

sailwx.info

Track history (hours):
 
Tides and Currents Weather Stations Pressure Air Temp Water Temp Dewpoint Dewpoint Depression Visibility Wind Speed Wind Dir Waves Ship Positions

Arklow Raider

Last reported at 2014-Sep-13 18:26 UTC. Time now 2014-Sep-22 18:18 UTC.
Position N 53°34' W 004°23'.
Warning: this ship's position is 8 days out of date.

Length 90 m; draft 5.9 m.

Type: Ship. MMSI: 250001268.

Date/timePositionNaut miles runAvg speedWind from/ knotsBaromVisibWave heightAir tempDewpointWater temp
2014-Sep-13 18:26N 53°34' W 004°23'1112.7
2014-Sep-13 17:32N 53°34' W 004°04'1312.7
2014-Sep-13 16:32N 53°34' W 003°42'2211.0
2014-Sep-13 14:29N 53°30' W 003°05'10 9.0
2014-Sep-13 13:23N 53°21' W 002°58'7 0.2
2014-Sep-11 17:10N 53°19' W 002°46'9 3.1
2014-Sep-11 14:11N 53°23' W 002°60'4 0.1
2014-Sep-10 03:03N 53°27' W 003°01'0 0.0
2014-Sep-10 02:27N 53°27' W 003°01'0 0.0
2014-Sep-10 00:32N 53°27' W 003°01'16 5.0
2014-Sep-09 21:23N 53°29' W 003°27'  
Track history (hours):
 
Tides and Currents Weather Stations Pressure Air Temp Water Temp Dewpoint Dewpoint Depression Visibility Wind Speed Wind Dir Waves Ship Positions

Arklow Raider

Last reported at 2014-Sep-13 18:26 UTC. Time now 2014-Sep-22 18:18 UTC.
Position N 53°34' W 004°23'.
Warning: this ship's position is 8 days out of date.

Length 90 m; draft 5.9 m.

Type: Ship. MMSI: 250001268.

Date/timePositionNaut miles runAvg speedWind from/ knotsBaromVisibWave heightAir tempDewpointWater temp
2014-Sep-13 18:26N 53°34' W 004°23'1112.7
2014-Sep-13 17:32N 53°34' W 004°04'1312.7
2014-Sep-13 16:32N 53°34' W 003°42'2211.0
2014-Sep-13 14:29N 53°30' W 003°05'10 9.0
2014-Sep-13 13:23N 53°21' W 002°58'7 0.2
2014-Sep-11 17:10N 53°19' W 002°46'9 3.1
2014-Sep-11 14:11N 53°23' W 002°60'4 0.1
2014-Sep-10 03:03N 53°27' W 003°01'0 0.0
2014-Sep-10 02:27N 53°27' W 003°01'0 0.0
2014-Sep-10 00:32N 53°27' W 003°01'16 5.0
2014-Sep-09 21:23N 53°29' W 003°27'  

Dump ship's entire track history